Time;durP1;ratioP1;P1;durP2;ratioP2;P2;SDS_P1;SDS_P2;PMS_P1;PMS_P2;Temp;Humidity;BMP_temperature;BMP_pressure;BME280_temperature;BME280_humidity;BME280_pressure;Samples;Min_cycle;Max_cycle;Signal;HPM_P1;HPM_P2
2022/08/20 00:01:30;;;;;;;13.33;12.73;;;21.10;99.90;;;;;;4964680;28;20476;-73
2022/08/20 00:03:57;;;;;;;12.53;12.03;;;21.10;99.90;;;;;;4960441;28;20463;-73
2022/08/20 00:06:25;;;;;;;13.23;12.70;;;21.10;99.90;;;;;;4963816;28;20448;-73
2022/08/20 00:08:52;;;;;;;12.60;12.00;;;21.10;99.90;;;;;;4964669;28;20451;-73
2022/08/20 00:11:22;;;;;;;12.67;12.13;;;21.00;99.90;;;;;;4962946;28;20445;-73
2022/08/20 00:13:51;;;;;;;12.30;11.83;;;21.00;99.90;;;;;;4962788;28;20451;-73
2022/08/20 00:16:21;;;;;;;12.63;12.13;;;21.00;99.90;;;;;;4964291;28;20816;-74
2022/08/20 00:18:48;;;;;;;12.57;11.80;;;21.00;99.90;;;;;;4964028;28;20452;-73
2022/08/20 00:21:17;;;;;;;12.30;11.90;;;21.00;99.90;;;;;;4962286;28;20444;-73
2022/08/20 00:23:47;;;;;;;13.27;12.30;;;20.90;99.90;;;;;;4963331;28;20463;-73
2022/08/20 00:26:14;;;;;;;18.60;17.73;;;20.90;99.90;;;;;;4964193;28;20502;-74
2022/08/20 00:28:41;;;;;;;25.10;23.40;;;20.80;99.90;;;;;;4963005;28;20455;-73
2022/08/20 00:31:10;;;;;;;27.10;25.27;;;20.70;99.90;;;;;;4963259;28;20853;-72
2022/08/20 00:33:37;;;;;;;26.30;24.60;;;20.50;99.90;;;;;;4963997;28;20452;-73
2022/08/20 00:36:08;;;;;;;28.10;26.20;;;20.20;99.90;;;;;;4962255;28;20550;-73
2022/08/20 00:38:36;;;;;;;27.87;25.90;;;20.10;99.90;;;;;;4961416;28;20448;-73
2022/08/20 00:41:05;;;;;;;26.33;24.73;;;20.00;99.90;;;;;;4953246;29;20488;-73
2022/08/20 00:43:35;;;;;;;26.87;25.07;;;19.90;99.90;;;;;;4953311;29;20444;-73
2022/08/20 00:46:06;;;;;;;27.60;25.70;;;19.70;99.90;;;;;;4949491;29;20437;-74
2022/08/20 00:48:36;;;;;;;27.80;25.73;;;19.60;99.90;;;;;;4953154;29;20449;-74
2022/08/20 00:51:06;;;;;;;27.97;25.80;;;19.50;99.90;;;;;;4953171;29;20449;-74
2022/08/20 00:53:34;;;;;;;25.57;23.97;;;19.60;99.90;;;;;;4953139;28;20453;-74
2022/08/20 00:56:01;;;;;;;27.13;25.13;;;19.60;99.90;;;;;;4952998;29;20535;-74
2022/08/20 00:58:30;;;;;;;24.83;23.13;;;19.50;99.90;;;;;;4952943;29;20448;-73
2022/08/20 01:00:57;;;;;;;24.40;22.83;;;19.50;99.90;;;;;;4953162;29;20457;-73
2022/08/20 01:03:24;;;;;;;26.43;24.63;;;19.50;99.90;;;;;;4953291;29;20453;-74
2022/08/20 01:05:52;;;;;;;26.87;25.00;;;19.60;99.90;;;;;;4953062;29;20448;-74
2022/08/20 01:08:23;;;;;;;28.60;26.63;;;19.60;99.90;;;;;;4952749;29;20449;-73
2022/08/20 01:10:52;;;;;;;27.07;25.23;;;19.60;99.90;;;;;;4952907;28;20441;-74
2022/08/20 01:13:25;;;;;;;19.77;18.77;;;19.70;99.90;;;;;;4948074;29;20460;-74
2022/08/20 01:15:55;;;;;;;26.40;24.70;;;19.70;99.90;;;;;;4952965;29;20942;-74
2022/08/20 01:18:25;;;;;;;27.37;25.57;;;19.90;99.90;;;;;;4952850;29;20453;-75
2022/08/20 01:20:56;;;;;;;26.13;24.43;;;19.90;99.90;;;;;;4952925;29;20706;-73
2022/08/20 01:23:29;;;;;;;25.57;23.80;;;20.00;99.90;;;;;;4952899;29;20507;-74
2022/08/20 01:26:02;;;;;;;25.10;23.40;;;20.00;99.90;;;;;;4952847;29;20885;-73
2022/08/20 01:28:34;;;;;;;26.73;25.00;;;20.00;99.90;;;;;;4952453;29;20474;-74
2022/08/20 01:31:00;;;;;;;26.37;24.47;;;20.00;99.90;;;;;;4948225;29;20444;-74
2022/08/20 01:33:27;;;;;;;30.07;27.57;;;20.00;99.90;;;;;;4952399;29;20852;-74
2022/08/20 01:35:54;;;;;;;27.30;25.50;;;19.90;99.90;;;;;;4952592;29;20483;-74
2022/08/20 01:38:21;;;;;;;29.77;27.60;;;19.80;99.90;;;;;;4952299;29;20444;-73
2022/08/20 01:41:03;;;;;;;27.77;25.77;;;19.70;99.90;;;;;;4952235;29;20476;-73
2022/08/20 01:43:31;;;;;;;28.83;26.70;;;19.60;99.90;;;;;;4950430;29;20460;-73
2022/08/20 01:45:57;;;;;;;26.67;24.57;;;19.60;99.90;;;;;;4946951;28;20707;-73
2022/08/20 01:48:24;;;;;;;28.77;26.67;;;19.50;99.90;;;;;;4952397;29;20452;-74
2022/08/20 01:50:57;;;;;;;29.93;27.37;;;19.50;99.90;;;;;;4952169;29;20440;-74
2022/08/20 01:53:29;;;;;;;29.00;26.80;;;19.50;99.90;;;;;;4948854;29;20535;-73
2022/08/20 01:55:56;;;;;;;28.73;26.83;;;19.50;99.90;;;;;;4951975;29;20477;-73
2022/08/20 01:58:24;;;;;;;27.37;25.47;;;19.50;99.90;;;;;;4952184;29;20524;-74
2022/08/20 02:00:50;;;;;;;25.87;24.27;;;19.50;99.90;;;;;;4951971;29;20480;-73
2022/08/20 02:03:17;;;;;;;25.30;23.70;;;19.50;99.90;;;;;;4951804;29;20449;-73
2022/08/20 02:05:44;;;;;;;25.70;23.80;;;19.50;99.90;;;;;;4951846;29;20441;-73
2022/08/20 02:08:10;;;;;;;25.97;24.17;;;19.50;99.90;;;;;;4951961;29;20456;-73
2022/08/20 02:10:37;;;;;;;25.13;23.50;;;19.60;99.90;;;;;;4952107;29;20457;-73
2022/08/20 02:13:06;;;;;;;27.33;25.43;;;19.60;99.90;;;;;;4951572;29;20444;-74
2022/08/20 02:15:35;;;;;;;25.53;24.03;;;19.50;99.90;;;;;;4951503;29;20485;-74
2022/08/20 02:18:04;;;;;;;25.37;23.67;;;19.50;99.90;;;;;;4951533;29;20448;-73
2022/08/20 02:20:31;;;;;;;26.80;25.03;;;19.50;99.90;;;;;;4951536;28;20648;-74
2022/08/20 02:22:59;;;;;;;25.77;24.17;;;19.50;99.90;;;;;;4946547;29;20476;-74
2022/08/20 02:25:32;;;;;;;26.60;24.80;;;19.40;99.90;;;;;;4951494;29;20452;-74
2022/08/20 02:28:01;;;;;;;24.83;23.13;;;19.40;99.90;;;;;;4946758;29;20508;-74
2022/08/20 02:30:32;;;;;;;26.17;24.20;;;19.40;99.90;;;;;;4951463;29;20444;-75
2022/08/20 02:33:01;;;;;;;25.03;23.33;;;19.30;99.90;;;;;;4946266;29;20516;-75
2022/08/20 02:35:28;;;;;;;25.70;24.00;;;19.30;99.90;;;;;;4951619;29;20489;-73
2022/08/20 02:37:56;;;;;;;24.57;22.73;;;19.30;99.90;;;;;;4951862;29;20464;-74
2022/08/20 02:40:25;;;;;;;22.93;21.63;;;19.30;99.90;;;;;;4951814;29;20484;-73
2022/08/20 02:42:52;;;;;;;23.10;21.70;;;19.40;99.90;;;;;;4951971;29;20499;-73
2022/08/20 02:45:21;;;;;;;26.47;24.63;;;19.30;99.90;;;;;;4951644;29;20444;-73
2022/08/20 02:47:49;;;;;;;24.83;23.07;;;19.20;99.90;;;;;;4951765;29;20703;-73
2022/08/20 02:50:19;;;;;;;25.53;23.63;;;19.30;99.90;;;;;;4951499;28;20463;-74
2022/08/20 02:52:46;;;;;;;27.63;25.83;;;19.40;99.90;;;;;;4951309;29;20480;-74
2022/08/20 02:55:14;;;;;;;24.73;23.23;;;19.30;99.90;;;;;;4951368;29;20484;-73
2022/08/20 02:57:41;;;;;;;24.70;23.00;;;19.30;99.90;;;;;;4951077;28;20456;-74
2022/08/20 03:00:10;;;;;;;26.03;24.13;;;19.30;99.90;;;;;;4951609;29;20882;-74
2022/08/20 03:02:37;;;;;;;26.20;24.20;;;19.40;99.90;;;;;;4951786;28;20519;-74
2022/08/20 03:05:04;;;;;;;26.77;24.83;;;19.30;99.90;;;;;;4951360;29;20460;-74
2022/08/20 03:07:39;;;;;;;24.27;22.27;;;19.30;99.90;;;;;;4951510;29;20478;-73
2022/08/20 03:10:07;;;;;;;22.83;21.33;;;19.20;99.90;;;;;;4951607;29;20957;-73
2022/08/20 03:12:34;;;;;;;22.73;21.10;;;19.20;99.90;;;;;;4952223;29;20460;-73
2022/08/20 03:15:01;;;;;;;21.40;19.90;;;19.10;99.90;;;;;;4952116;29;20452;-73
2022/08/20 03:17:28;;;;;;;22.10;20.50;;;19.10;99.90;;;;;;4952124;29;20448;-73
2022/08/20 03:19:54;;;;;;;21.40;19.90;;;18.90;99.90;;;;;;4952416;29;20456;-73
2022/08/20 03:22:21;;;;;;;22.43;21.03;;;18.90;99.90;;;;;;4952394;29;20456;-73
2022/08/20 03:24:49;;;;;;;22.40;20.80;;;18.90;99.90;;;;;;4952314;29;20448;-74
2022/08/20 03:27:16;;;;;;;23.90;22.40;;;19.00;99.90;;;;;;4952096;29;20459;-73
2022/08/20 03:29:42;;;;;;;21.30;20.10;;;19.00;99.90;;;;;;4952032;29;20452;-74
2022/08/20 03:32:09;;;;;;;23.43;21.73;;;18.90;99.90;;;;;;4952387;29;20452;-74
2022/08/20 03:34:36;;;;;;;22.13;20.37;;;19.00;99.90;;;;;;4952213;29;20473;-74
2022/08/20 03:37:03;;;;;;;23.17;21.77;;;19.00;99.90;;;;;;4951934;29;20492;-73
2022/08/20 03:39:29;;;;;;;23.43;22.07;;;19.10;99.90;;;;;;4951589;29;20873;-73
2022/08/20 03:41:57;;;;;;;22.90;21.37;;;19.10;99.90;;;;;;4951801;29;20491;-73
2022/08/20 03:44:25;;;;;;;22.10;20.70;;;19.10;99.90;;;;;;4952290;29;20456;-74
2022/08/20 03:46:52;;;;;;;22.70;21.30;;;19.10;99.90;;;;;;4952153;29;20969;-74
2022/08/20 03:49:18;;;;;;;21.60;20.23;;;19.10;99.90;;;;;;4951849;29;20452;-74
2022/08/20 03:51:46;;;;;;;21.63;20.30;;;19.10;99.90;;;;;;4952062;29;20452;-74
2022/08/20 03:54:12;;;;;;;21.50;19.90;;;19.10;99.90;;;;;;4951479;29;20457;-75
2022/08/20 03:56:39;;;;;;;20.67;19.27;;;19.10;99.90;;;;;;4951902;29;20921;-75
2022/08/20 03:59:08;;;;;;;20.60;19.50;;;19.00;99.90;;;;;;4951882;29;20816;-75
2022/08/20 04:01:35;;;;;;;21.70;20.30;;;19.00;99.90;;;;;;4951892;29;20456;-74
2022/08/20 04:04:01;;;;;;;20.43;19.23;;;19.10;99.90;;;;;;4951780;29;21037;-75
2022/08/20 04:06:29;;;;;;;20.23;19.00;;;19.10;99.90;;;;;;4951856;29;20458;-74
2022/08/20 04:08:56;;;;;;;21.40;20.00;;;19.10;99.90;;;;;;4953350;28;20500;-75
2022/08/20 04:11:23;;;;;;;20.20;18.90;;;19.10;99.90;;;;;;4955882;29;20926;-75
2022/08/20 04:13:49;;;;;;;19.23;18.23;;;19.00;99.90;;;;;;4955939;29;20483;-76
2022/08/20 04:16:18;;;;;;;19.30;18.30;;;19.10;99.90;;;;;;4955535;29;21005;-76
2022/08/20 04:18:46;;;;;;;19.60;18.60;;;19.10;99.90;;;;;;4955466;29;20476;-75
2022/08/20 04:21:13;;;;;;;18.57;17.67;;;19.10;99.90;;;;;;4955932;29;21008;-76
2022/08/20 04:23:40;;;;;;;17.90;17.10;;;19.10;99.90;;;;;;4955665;29;20456;-76
2022/08/20 04:26:07;;;;;;;20.30;19.00;;;19.10;99.90;;;;;;4955723;29;20447;-76
2022/08/20 04:28:33;;;;;;;19.60;18.40;;;19.10;99.90;;;;;;4955255;29;20812;-75
2022/08/20 04:31:01;;;;;;;20.50;19.50;;;19.10;99.90;;;;;;4955128;29;20997;-74
2022/08/20 04:33:31;;;;;;;20.20;19.00;;;19.10;99.90;;;;;;4955179;29;20938;-74
2022/08/20 04:36:01;;;;;;;20.37;19.27;;;19.20;99.90;;;;;;4955066;29;20491;-75
2022/08/20 04:38:28;;;;;;;21.67;20.20;;;19.20;99.90;;;;;;4955018;29;20457;-75
2022/08/20 04:40:57;;;;;;;20.73;19.63;;;19.30;99.90;;;;;;4954885;29;20917;-73
2022/08/20 04:43:25;;;;;;;19.33;18.27;;;19.50;99.90;;;;;;4955189;28;20492;-75
2022/08/20 04:45:52;;;;;;;18.63;17.63;;;19.50;99.90;;;;;;4955290;29;20452;-75
2022/08/20 04:48:22;;;;;;;19.60;18.60;;;19.40;99.90;;;;;;4954824;29;20457;-74
2022/08/20 04:50:52;;;;;;;19.30;18.20;;;19.30;99.90;;;;;;4954895;29;20457;-75
2022/08/20 04:53:22;;;;;;;19.60;18.60;;;19.30;99.90;;;;;;4954671;28;20468;-75
2022/08/20 04:55:50;;;;;;;28.17;26.60;;;19.30;99.90;;;;;;4954976;29;20492;-75
2022/08/20 04:58:19;;;;;;;33.03;30.93;;;19.20;99.90;;;;;;4954627;29;20457;-70
2022/08/20 05:00:47;;;;;;;37.07;34.40;;;19.10;99.90;;;;;;4948310;29;20591;-74
2022/08/20 05:03:14;;;;;;;41.70;38.40;;;19.00;99.90;;;;;;4953170;28;20476;-72
2022/08/20 05:05:41;;;;;;;39.60;36.53;;;18.80;99.90;;;;;;4954867;29;20807;-73
2022/08/20 05:08:10;;;;;;;38.20;35.70;;;18.70;99.90;;;;;;4954790;29;20460;-74
2022/08/20 05:10:37;;;;;;;38.43;35.87;;;18.70;99.90;;;;;;4954575;29;20555;-74
2022/08/20 05:13:03;;;;;;;36.90;33.93;;;18.60;99.90;;;;;;4954596;29;20547;-74
2022/08/20 05:15:30;;;;;;;36.87;34.27;;;18.60;99.90;;;;;;4955018;29;20589;-73
2022/08/20 05:18:03;;;;;;;37.00;34.37;;;18.50;99.90;;;;;;4954855;29;20448;-75
2022/08/20 05:20:33;;;;;;;37.33;34.63;;;18.50;99.90;;;;;;4954478;28;20453;-72
2022/08/20 05:23:01;;;;;;;36.63;34.03;;;18.50;99.90;;;;;;4954459;29;20967;-75
2022/08/20 05:25:30;;;;;;;37.10;34.30;;;18.60;99.90;;;;;;4954876;29;20476;-75
2022/08/20 05:27:59;;;;;;;37.53;34.70;;;18.60;99.90;;;;;;4954764;28;20448;-74
2022/08/20 05:30:27;;;;;;;36.23;33.50;;;18.50;99.90;;;;;;4954338;29;20866;-74
2022/08/20 05:32:53;;;;;;;35.40;32.90;;;18.50;99.90;;;;;;4955504;29;20453;-76
2022/08/20 05:35:20;;;;;;;37.50;35.00;;;18.50;99.90;;;;;;4955404;29;20449;-76
2022/08/20 05:37:47;;;;;;;37.33;34.63;;;18.60;99.90;;;;;;4954408;29;20640;-74
2022/08/20 05:40:15;;;;;;;37.00;34.40;;;18.60;99.90;;;;;;4954246;29;20492;-76
2022/08/20 05:42:43;;;;;;;36.60;34.10;;;18.70;99.90;;;;;;4954520;29;20464;-74
2022/08/20 05:45:10;;;;;;;38.53;35.73;;;18.70;99.90;;;;;;4954320;29;20511;-75
2022/08/20 05:47:40;;;;;;;39.53;36.63;;;18.80;99.90;;;;;;4954103;29;20460;-74
2022/08/20 05:50:07;;;;;;;39.47;36.57;;;18.80;99.90;;;;;;4954165;28;20535;-75
2022/08/20 05:52:34;;;;;;;39.37;36.37;;;18.80;99.90;;;;;;4954173;29;20459;-75
2022/08/20 05:55:01;;;;;;;39.33;36.43;;;18.70;99.90;;;;;;4953942;29;20463;-75
2022/08/20 05:57:28;;;;;;;38.30;35.10;;;18.60;99.90;;;;;;4953694;29;20488;-73
2022/08/20 05:59:56;;;;;;;38.67;35.77;;;18.60;99.90;;;;;;4953808;29;20452;-74
2022/08/20 06:05:07;;;;;;;38.57;35.60;;;18.50;99.90;;;;;;4954367;29;20580;-74
2022/08/20 06:07:34;;;;;;;37.97;35.20;;;18.50;99.90;;;;;;4953656;28;20453;-73
2022/08/20 06:10:01;;;;;;;37.73;35.03;;;18.50;99.90;;;;;;4953934;29;20460;-76
2022/08/20 06:12:28;;;;;;;37.23;34.63;;;18.60;99.90;;;;;;4953783;29;20448;-75
2022/08/20 06:14:56;;;;;;;36.97;34.47;;;18.60;99.90;;;;;;4954290;29;20479;-77
2022/08/20 06:17:23;;;;;;;37.30;34.50;;;18.70;99.90;;;;;;4955721;28;21014;-77
2022/08/20 06:19:50;;;;;;;34.10;31.80;;;18.90;99.90;;;;;;4956536;29;20456;-77
2022/08/20 06:22:17;;;;;;;32.67;30.37;;;18.90;99.90;;;;;;4955953;29;20882;-78
2022/08/20 06:24:44;;;;;;;29.80;28.10;;;19.10;99.90;;;;;;4954612;29;20457;-76
2022/08/20 06:27:14;;;;;;;29.63;27.67;;;19.20;99.90;;;;;;4955069;29;20452;-77
2022/08/20 06:29:41;;;;;;;26.80;25.30;;;19.40;99.90;;;;;;4957278;28;20465;-81
2022/08/20 06:32:09;;;;;;;25.73;24.17;;;19.60;99.90;;;;;;4956186;28;20484;-81
2022/08/20 06:34:36;;;;;;;24.33;22.93;;;19.70;99.90;;;;;;4956343;29;20457;-79
2022/08/20 06:37:02;;;;;;;21.10;19.93;;;19.80;99.90;;;;;;4955089;29;20499;-81
2022/08/20 06:39:31;;;;;;;20.67;19.50;;;19.90;99.90;;;;;;4956516;29;20504;-82
2022/08/20 06:41:58;;;;;;;20.30;19.30;;;20.10;99.90;;;;;;4955910;29;20507;-80
2022/08/20 06:44:27;;;;;;;17.47;16.67;;;20.20;99.90;;;;;;4956890;29;20456;-79
2022/08/20 06:46:54;;;;;;;18.10;17.10;;;20.40;99.90;;;;;;4956234;29;20464;-78
2022/08/20 06:49:22;;;;;;;17.80;17.00;;;20.60;99.90;;;;;;4956536;28;20460;-80
2022/08/20 06:51:49;;;;;;;17.40;16.60;;;20.70;99.90;;;;;;4960652;28;20474;-80
2022/08/20 06:54:16;;;;;;;17.40;16.70;;;20.70;99.90;;;;;;4961102;29;20457;-89
2022/08/20 06:56:43;;;;;;;17.77;16.97;;;21.10;99.90;;;;;;4959597;29;20484;-84
2022/08/20 06:59:10;;;;;;;18.00;17.10;;;21.50;99.90;;;;;;4956757;28;20449;-83
2022/08/20 07:01:37;;;;;;;18.03;17.13;;;21.70;99.90;;;;;;4956288;29;20461;-83
2022/08/20 07:04:06;;;;;;;17.10;16.30;;;21.60;99.90;;;;;;4957288;29;20463;-86
2022/08/20 07:06:34;;;;;;;18.33;17.37;;;21.50;99.90;;;;;;4956577;29;20444;-86
2022/08/20 07:09:01;;;;;;;18.10;17.30;;;21.60;99.90;;;;;;4955928;29;20862;-84
2022/08/20 07:11:28;;;;;;;17.40;16.70;;;21.70;99.90;;;;;;4954872;29;20461;-78
2022/08/20 07:13:55;;;;;;;17.50;16.70;;;21.70;99.90;;;;;;4953766;29;20463;-78
2022/08/20 07:16:22;;;;;;;17.17;16.37;;;21.70;99.90;;;;;;4968197;28;20465;-78
2022/08/20 07:18:49;;;;;;;17.10;16.40;;;21.90;99.90;;;;;;4976156;29;20452;-81
2022/08/20 07:21:16;;;;;;;17.10;16.30;;;22.00;99.90;;;;;;4958746;29;20456;-78
2022/08/20 07:23:44;;;;;;;16.70;15.70;;;21.80;99.90;;;;;;4952653;28;20940;-78
2022/08/20 07:26:12;;;;;;;17.10;16.40;;;21.80;99.90;;;;;;4952455;29;20555;-84
2022/08/20 07:28:38;;;;;;;17.37;16.47;;;21.70;99.90;;;;;;4952995;29;20456;-81
2022/08/20 07:33:51;;;;;;;17.30;16.60;;;22.00;99.90;;;;;;4925660;29;20523;-77
2022/08/20 07:36:19;;;;;;;17.70;16.70;;;22.20;99.90;;;;;;4950674;29;20448;-74
2022/08/20 07:38:49;;;;;;;17.63;16.83;;;22.20;99.90;;;;;;4951389;29;20479;-75
2022/08/20 07:41:16;;;;;;;18.30;17.43;;;22.30;99.90;;;;;;4950750;29;21105;-74
2022/08/20 07:43:45;;;;;;;18.27;17.40;;;22.30;99.90;;;;;;4951350;28;20511;-74
2022/08/20 07:46:13;;;;;;;17.57;16.67;;;22.50;99.90;;;;;;4952313;28;20448;-79
2022/08/20 07:48:45;;;;;;;17.43;16.57;;;22.80;99.90;;;;;;4954819;29;20472;-80
2022/08/20 07:51:12;;;;;;;17.97;17.20;;;23.00;99.90;;;;;;4952740;29;20457;-81
2022/08/20 07:53:41;;;;;;;17.17;16.47;;;23.20;99.90;;;;;;4953979;29;20452;-80
2022/08/20 07:56:11;;;;;;;17.67;16.83;;;23.20;99.90;;;;;;4953955;29;20456;-80
2022/08/20 07:58:41;;;;;;;17.37;16.67;;;23.50;99.90;;;;;;4952609;29;20484;-80
2022/08/20 08:01:09;;;;;;;17.40;16.60;;;24.00;99.90;;;;;;4954780;29;20444;-79
2022/08/20 08:03:36;;;;;;;17.60;16.80;;;24.50;99.90;;;;;;4954487;29;20589;-81
2022/08/20 08:06:04;;;;;;;16.87;16.17;;;25.20;99.90;;;;;;4954589;29;20452;-82
2022/08/20 08:08:33;;;;;;;17.23;16.53;;;25.50;99.90;;;;;;4954462;29;20448;-82
2022/08/20 08:11:02;;;;;;;17.50;16.60;;;25.80;99.90;;;;;;4954584;29;20474;-81
2022/08/20 08:13:34;;;;;;;16.07;15.40;;;25.80;99.90;;;;;;4954512;29;20464;-80
2022/08/20 08:16:04;;;;;;;17.07;16.27;;;25.80;99.90;;;;;;4954185;29;20466;-79
2022/08/20 08:18:36;;;;;;;16.60;15.80;;;26.30;99.90;;;;;;4953851;29;20518;-80
2022/08/20 08:21:04;;;;;;;17.27;16.57;;;27.00;99.90;;;;;;4954130;29;20958;-80
2022/08/20 08:23:31;;;;;;;16.30;15.60;;;27.30;99.90;;;;;;4954474;29;20460;-81
2022/08/20 08:25:58;;;;;;;16.23;15.53;;;27.60;99.90;;;;;;4954159;28;20484;-80
2022/08/20 08:28:28;;;;;;;16.20;15.27;;;28.20;99.90;;;;;;4954178;29;20444;-81
2022/08/20 08:30:57;;;;;;;16.30;15.60;;;29.00;99.90;;;;;;4954183;29;20959;-81
2022/08/20 08:33:29;;;;;;;16.30;15.70;;;29.20;99.90;;;;;;4954451;29;20479;-80
2022/08/20 08:35:57;;;;;;;15.53;14.93;;;29.10;99.90;;;;;;4954345;28;20883;-81
2022/08/20 08:38:25;;;;;;;16.53;15.83;;;29.40;99.90;;;;;;4954105;29;20579;-79
2022/08/20 08:40:54;;;;;;;16.13;15.43;;;29.80;99.90;;;;;;4919168;29;1036300;-81
2022/08/20 08:43:24;;;;;;;15.57;14.97;;;29.90;98.80;;;;;;4955381;29;20216;-81
2022/08/20 08:46:00;;;;;;;15.70;15.10;;;29.70;99.30;;;;;;4954930;29;20962;-81
2022/08/20 08:48:32;;;;;;;16.20;15.40;;;29.70;97.80;;;;;;4955216;29;20452;-81
2022/08/20 08:51:00;;;;;;;15.23;14.63;;;29.90;97.50;;;;;;4955328;29;20452;-80
2022/08/20 08:53:32;;;;;;;16.03;14.93;;;29.90;97.30;;;;;;4954833;29;20465;-79
2022/08/20 08:55:59;;;;;;;16.30;15.70;;;29.70;96.50;;;;;;4954172;28;20460;-80
2022/08/20 08:58:26;;;;;;;16.17;15.50;;;29.80;97.30;;;;;;4955099;29;21009;-80
2022/08/20 09:00:53;;;;;;;15.07;14.53;;;29.90;96.70;;;;;;4955324;29;20515;-81
2022/08/20 09:03:26;;;;;;;15.17;14.47;;;30.10;96.20;;;;;;4955186;29;20969;-81
2022/08/20 09:05:55;;;;;;;16.23;15.40;;;29.90;97.10;;;;;;4955138;29;20515;-80
2022/08/20 09:08:26;;;;;;;16.27;15.67;;;30.20;96.50;;;;;;4955424;29;20459;-80
2022/08/20 09:10:53;;;;;;;16.20;15.40;;;29.60;97.10;;;;;;4955001;29;20457;-79
2022/08/20 09:13:20;;;;;;;16.43;15.73;;;29.10;99.40;;;;;;4954576;29;20461;-79
2022/08/20 09:15:46;;;;;;;15.43;14.73;;;28.30;99.10;;;;;;4954336;29;20464;-80
2022/08/20 09:18:13;;;;;;;15.90;15.17;;;28.20;99.90;;;;;;4954269;29;20519;-80
2022/08/20 09:20:41;;;;;;;15.13;14.47;;;27.90;99.90;;;;;;4954734;29;20491;-80
2022/08/20 09:23:08;;;;;;;15.57;14.97;;;27.60;99.90;;;;;;4954368;29;20467;-81
2022/08/20 09:25:34;;;;;;;16.10;15.33;;;27.70;99.90;;;;;;4954633;29;20511;-81
2022/08/20 09:28:01;;;;;;;15.20;14.70;;;27.10;99.90;;;;;;4954146;29;20823;-82
2022/08/20 09:30:28;;;;;;;16.73;15.93;;;26.40;99.90;;;;;;4954062;29;20943;-82
2022/08/20 09:32:58;;;;;;;16.30;15.60;;;26.20;99.90;;;;;;4954461;29;20464;-81
2022/08/20 09:35:24;;;;;;;17.43;16.53;;;25.90;99.90;;;;;;4954452;29;20460;-79
2022/08/20 09:37:53;;;;;;;16.20;15.50;;;25.90;99.90;;;;;;4954298;29;20492;-80
2022/08/20 09:40:21;;;;;;;15.30;14.60;;;25.70;99.90;;;;;;4953990;28;20503;-79
2022/08/20 09:42:48;;;;;;;16.83;15.97;;;25.90;99.90;;;;;;4953781;29;20448;-80
2022/08/20 09:45:15;;;;;;;15.20;14.40;;;26.30;99.90;;;;;;4954439;29;20597;-79
2022/08/20 09:47:42;;;;;;;15.30;14.63;;;26.40;99.90;;;;;;4953951;29;20931;-80
2022/08/20 09:50:09;;;;;;;15.40;14.77;;;26.40;99.90;;;;;;4954014;29;20468;-80
2022/08/20 09:52:39;;;;;;;14.33;13.73;;;26.10;99.90;;;;;;4953921;29;20459;-80
2022/08/20 09:55:17;;;;;;;14.10;13.50;;;25.90;99.90;;;;;;4954362;28;20476;-79
2022/08/20 09:57:43;;;;;;;13.73;13.13;;;25.70;99.90;;;;;;4953944;29;20484;-79
2022/08/20 10:00:11;;;;;;;12.87;12.47;;;25.70;99.90;;;;;;4954239;29;20571;-81
2022/08/20 10:02:38;;;;;;;14.07;13.57;;;26.10;99.90;;;;;;4954122;29;20977;-80
2022/08/20 10:05:05;;;;;;;13.67;13.17;;;26.30;99.90;;;;;;4953417;29;20456;-81
2022/08/20 10:07:33;;;;;;;13.23;12.73;;;26.50;99.90;;;;;;4953496;28;20449;-80
2022/08/20 10:10:00;;;;;;;13.30;12.90;;;26.70;99.90;;;;;;4953804;29;20456;-79
2022/08/20 10:12:28;;;;;;;13.77;13.20;;;27.00;99.90;;;;;;4953477;29;20943;-79
2022/08/20 10:14:55;;;;;;;13.77;13.10;;;26.70;99.90;;;;;;4953618;29;20545;-79
2022/08/20 10:17:22;;;;;;;13.97;13.37;;;26.50;99.90;;;;;;4953663;28;20898;-79
2022/08/20 10:19:48;;;;;;;12.80;12.40;;;25.90;99.90;;;;;;4953269;29;20837;-80
2022/08/20 10:22:15;;;;;;;12.67;12.23;;;25.60;99.90;;;;;;4953043;29;20460;-80
2022/08/20 10:24:42;;;;;;;12.67;12.23;;;25.90;99.90;;;;;;4953165;29;20457;-82
2022/08/20 10:27:09;;;;;;;12.60;12.20;;;26.30;99.90;;;;;;4953666;29;20449;-82
2022/08/20 10:29:37;;;;;;;13.37;12.77;;;26.80;99.90;;;;;;4953459;29;20456;-81
2022/08/20 10:32:11;;;;;;;14.13;13.00;;;27.60;99.90;;;;;;4953497;29;20456;-82
2022/08/20 10:34:38;;;;;;;12.97;12.57;;;28.00;98.70;;;;;;4953482;29;20930;-81
2022/08/20 10:37:04;;;;;;;11.47;11.10;;;28.30;97.10;;;;;;4952993;29;21009;-79
2022/08/20 10:39:31;;;;;;;12.30;11.90;;;28.30;96.70;;;;;;4952692;29;20476;-79
2022/08/20 10:41:58;;;;;;;12.50;12.10;;;28.00;98.00;;;;;;4953540;29;20488;-78
2022/08/20 10:44:25;;;;;;;12.60;12.20;;;27.90;97.60;;;;;;4953681;29;20456;-81
2022/08/20 10:46:53;;;;;;;11.80;11.50;;;27.90;97.20;;;;;;4953771;29;20657;-80
2022/08/20 10:49:19;;;;;;;12.27;11.87;;;27.80;97.10;;;;;;4953040;29;20437;-80
2022/08/20 10:51:46;;;;;;;12.70;12.30;;;28.20;97.30;;;;;;4953157;29;20455;-80
2022/08/20 10:54:13;;;;;;;12.73;12.30;;;28.50;96.70;;;;;;4952817;29;20456;-80
2022/08/20 10:56:40;;;;;;;12.27;11.87;;;28.60;96.40;;;;;;4953186;29;20452;-80
2022/08/20 10:59:07;;;;;;;12.30;11.90;;;27.80;96.90;;;;;;4953729;29;20500;-81
2022/08/20 11:01:33;;;;;;;12.10;11.70;;;27.00;98.90;;;;;;4953058;29;20512;-80
2022/08/20 11:04:01;;;;;;;11.90;11.50;;;26.30;99.90;;;;;;4952969;29;20461;-81
2022/08/20 11:06:28;;;;;;;12.87;12.47;;;26.10;99.90;;;;;;4953313;29;20476;-81
2022/08/20 11:08:55;;;;;;;12.47;12.07;;;25.90;99.90;;;;;;4953429;28;20460;-80
2022/08/20 11:11:21;;;;;;;12.80;12.10;;;25.90;99.90;;;;;;4953281;29;20461;-79
2022/08/20 11:13:48;;;;;;;13.37;12.87;;;25.80;99.90;;;;;;4951209;29;20829;-80
2022/08/20 11:16:15;;;;;;;11.90;11.50;;;25.70;99.90;;;;;;4954372;29;20472;-80
2022/08/20 11:18:41;;;;;;;11.37;10.97;;;25.70;99.90;;;;;;4961370;29;20488;-80
2022/08/20 11:21:09;;;;;;;12.80;12.40;;;25.50;99.90;;;;;;4976747;29;20455;-81
2022/08/20 11:23:36;;;;;;;12.23;11.73;;;25.50;99.90;;;;;;4960529;29;20994;-79
2022/08/20 11:26:03;;;;;;;12.40;12.00;;;25.50;99.90;;;;;;4952363;29;20822;-81
2022/08/20 11:28:32;;;;;;;11.67;11.30;;;25.60;99.90;;;;;;4952490;29;20644;-80
2022/08/20 11:30:59;;;;;;;12.37;11.97;;;25.60;99.90;;;;;;4952211;29;20486;-81
2022/08/20 11:33:25;;;;;;;12.87;12.37;;;25.60;99.90;;;;;;4952266;29;20449;-80
2022/08/20 11:35:52;;;;;;;12.27;11.77;;;25.70;99.90;;;;;;4952392;29;20456;-79
2022/08/20 11:38:20;;;;;;;12.47;11.97;;;25.80;99.90;;;;;;4952945;29;20656;-80
2022/08/20 11:40:47;;;;;;;12.00;11.60;;;25.70;99.90;;;;;;4952392;29;21104;-79
2022/08/20 11:43:14;;;;;;;11.93;11.43;;;25.70;99.90;;;;;;4952445;29;20465;-79
2022/08/20 11:45:41;;;;;;;11.77;11.37;;;26.00;99.90;;;;;;4952027;29;20448;-81
2022/08/20 11:48:08;;;;;;;11.97;11.57;;;26.20;99.90;;;;;;4952311;29;20441;-80
2022/08/20 11:50:34;;;;;;;12.57;12.07;;;26.60;99.90;;;;;;4952240;29;20445;-79
2022/08/20 11:53:01;;;;;;;12.70;12.20;;;26.70;99.90;;;;;;4951800;29;20457;-79
2022/08/20 11:55:29;;;;;;;13.60;13.20;;;27.00;99.90;;;;;;4952658;29;20456;-78
2022/08/20 11:57:56;;;;;;;13.80;13.30;;;27.10;98.80;;;;;;4951963;29;20505;-79
2022/08/20 12:00:23;;;;;;;11.50;11.10;;;27.00;99.20;;;;;;4951974;29;20535;-79
2022/08/20 12:02:50;;;;;;;11.67;11.33;;;27.20;98.80;;;;;;4951977;29;20887;-80
2022/08/20 12:05:18;;;;;;;11.70;11.30;;;27.40;97.70;;;;;;4951691;28;20488;-79
2022/08/20 12:07:45;;;;;;;11.77;11.43;;;26.60;99.00;;;;;;4951547;29;20460;-79
2022/08/20 12:10:12;;;;;;;13.17;12.67;;;26.40;99.70;;;;;;4951377;29;20489;-79
2022/08/20 12:12:41;;;;;;;11.50;11.20;;;26.20;99.90;;;;;;4951817;29;20448;-79
2022/08/20 12:15:09;;;;;;;13.47;13.07;;;26.30;99.90;;;;;;4951900;29;20464;-79
2022/08/20 12:17:36;;;;;;;12.60;12.20;;;26.50;99.00;;;;;;4951583;29;20776;-80
2022/08/20 12:20:09;;;;;;;11.30;11.00;;;26.80;99.20;;;;;;4951474;29;20456;-80
2022/08/20 12:22:35;;;;;;;11.83;11.53;;;27.10;98.60;;;;;;4951603;29;20448;-81
2022/08/20 12:25:02;;;;;;;11.93;11.53;;;27.00;98.50;;;;;;4951407;29;20460;-80
2022/08/20 12:27:31;;;;;;;12.17;11.77;;;26.90;99.20;;;;;;4951712;28;20487;-81
2022/08/20 12:30:01;;;;;;;12.37;12.00;;;27.40;99.30;;;;;;4951627;28;20488;-80
2022/08/20 12:32:29;;;;;;;12.30;11.90;;;27.70;97.80;;;;;;4954958;29;20452;-82
2022/08/20 12:34:57;;;;;;;12.80;12.20;;;27.90;96.80;;;;;;4955081;29;20874;-81